createdAt,value
2024-01-06T00:02:22.961Z,63.27
2024-01-06T00:04:49.744Z,69.07
2024-01-06T00:07:16.565Z,59.70
2024-01-06T00:09:43.618Z,61.63
2024-01-06T00:12:11.145Z,63.20
2024-01-06T00:14:38.003Z,68.70
2024-01-06T00:17:05.026Z,65.77
2024-01-06T00:19:32.137Z,77.30
2024-01-06T00:21:58.976Z,69.87
2024-01-06T00:24:25.912Z,60.30
2024-01-06T00:26:52.821Z,63.03
2024-01-06T00:29:19.730Z,61.53
2024-01-06T00:31:46.679Z,60.50
2024-01-06T00:34:13.858Z,67.00
2024-01-06T00:36:40.754Z,71.97
2024-01-06T00:39:07.715Z,64.57
2024-01-06T00:41:34.933Z,69.07
2024-01-06T00:44:01.743Z,66.07
2024-01-06T00:46:28.576Z,67.23
2024-01-06T00:48:55.695Z,78.47
2024-01-06T00:51:23.364Z,60.83
2024-01-06T00:53:50.493Z,60.90
2024-01-06T00:56:17.483Z,60.07
2024-01-06T00:58:44.317Z,55.13
2024-01-06T01:01:11.267Z,59.50
2024-01-06T01:03:38.312Z,59.93
2024-01-06T01:06:05.200Z,54.13
2024-01-06T01:08:32.151Z,56.43
2024-01-06T01:10:59.055Z,53.60
2024-01-06T01:13:25.959Z,62.27
2024-01-06T01:15:53.102Z,59.77
2024-01-06T01:18:20.121Z,55.20
2024-01-06T01:20:47.381Z,58.70
2024-01-06T01:23:14.255Z,60.07
2024-01-06T01:25:41.091Z,56.60
2024-01-06T01:28:08.188Z,58.10
2024-01-06T01:30:35.063Z,63.00
2024-01-06T01:33:02.147Z,62.60
2024-01-06T01:35:29.037Z,60.20
2024-01-06T01:37:55.945Z,62.23
2024-01-06T01:40:22.924Z,62.43
2024-01-06T01:42:49.914Z,61.90
2024-01-06T01:45:16.871Z,61.13
2024-01-06T01:47:43.818Z,61.00
2024-01-06T01:50:11.375Z,64.60
2024-01-06T01:52:38.258Z,64.67
2024-01-06T01:55:05.550Z,59.53
2024-01-06T01:57:32.838Z,63.40
2024-01-06T02:00:01.361Z,58.60
2024-01-06T02:02:29.844Z,65.53
2024-01-06T02:04:57.289Z,61.67
2024-01-06T02:07:24.343Z,56.23
2024-01-06T02:09:51.238Z,60.07
2024-01-06T02:12:18.136Z,62.30
2024-01-06T02:14:45.124Z,65.97
2024-01-06T02:17:11.899Z,59.43
2024-01-06T02:19:41.658Z,61.87
2024-01-06T02:22:08.687Z,60.57
2024-01-06T02:24:35.551Z,62.00
2024-01-06T02:27:02.473Z,61.97
2024-01-06T02:29:29.375Z,61.13
2024-01-06T02:31:56.193Z,63.17
2024-01-06T02:34:23.180Z,62.17
2024-01-06T02:36:50.702Z,59.17
2024-01-06T02:39:17.565Z,64.43
2024-01-06T02:41:44.544Z,57.77
2024-01-06T02:44:13.759Z,60.67
2024-01-06T02:46:40.951Z,60.73
2024-01-06T02:49:09.200Z,60.30
2024-01-06T02:51:36.260Z,58.33
2024-01-06T02:54:03.139Z,62.50
2024-01-06T02:56:30.057Z,63.23
2024-01-06T02:58:56.903Z,67.13
2024-01-06T03:01:23.855Z,58.27
2024-01-06T03:03:50.829Z,61.67
2024-01-06T03:06:17.866Z,65.70
2024-01-06T03:08:44.686Z,62.90
2024-01-06T03:11:12.070Z,65.47
2024-01-06T03:13:38.990Z,59.07
2024-01-06T03:16:08.628Z,69.33
2024-01-06T03:18:35.825Z,65.30
2024-01-06T03:21:02.843Z,62.50
2024-01-06T03:23:29.623Z,64.83
2024-01-06T03:25:56.485Z,75.00
2024-01-06T03:28:23.395Z,63.67
2024-01-06T03:30:50.329Z,64.37
2024-01-06T03:33:17.346Z,67.07
2024-01-06T03:35:44.348Z,59.13
2024-01-06T03:38:11.139Z,60.33
2024-01-06T03:40:38.013Z,60.77
2024-01-06T03:43:04.891Z,58.53
2024-01-06T03:45:31.849Z,59.43
2024-01-06T03:47:58.836Z,57.37
2024-01-06T03:50:25.901Z,59.20
2024-01-06T03:52:52.804Z,66.90
2024-01-06T03:55:19.605Z,63.23
2024-01-06T03:57:46.497Z,61.57
2024-01-06T04:00:13.587Z,69.60
2024-01-06T04:02:40.382Z,70.27
2024-01-06T04:05:07.481Z,57.80
2024-01-06T04:07:34.270Z,60.33
2024-01-06T04:10:01.383Z,56.47
2024-01-06T04:12:28.301Z,56.23
2024-01-06T04:14:55.156Z,60.50
2024-01-06T04:17:22.235Z,60.37
2024-01-06T04:19:49.200Z,64.20
2024-01-06T04:22:16.232Z,67.43
2024-01-06T04:24:43.071Z,60.67
2024-01-06T04:27:11.204Z,72.83
2024-01-06T04:29:39.381Z,64.37
2024-01-06T04:32:07.034Z,62.13
2024-01-06T04:34:33.982Z,67.40
2024-01-06T04:37:00.953Z,74.22
2024-01-06T04:39:28.283Z,74.47
2024-01-06T04:41:55.135Z,73.33
2024-01-06T04:44:22.724Z,69.87
2024-01-06T04:46:49.791Z,63.27
2024-01-06T04:49:16.655Z,68.00
2024-01-06T04:51:43.668Z,62.33
2024-01-06T04:54:10.501Z,66.50
2024-01-06T04:56:37.393Z,64.47
2024-01-06T04:59:04.255Z,67.23
2024-01-06T05:01:31.334Z,64.60
2024-01-06T05:03:58.360Z,70.30
2024-01-06T05:06:25.516Z,69.00
2024-01-06T05:08:52.491Z,68.20
2024-01-06T05:11:19.313Z,60.80
2024-01-06T05:13:46.432Z,65.13
2024-01-06T05:16:13.349Z,68.00
2024-01-06T05:18:40.367Z,63.33
2024-01-06T05:21:07.424Z,61.03
2024-01-06T05:23:34.288Z,64.97
2024-01-06T05:26:01.158Z,59.77
2024-01-06T05:28:28.196Z,67.10
2024-01-06T05:30:55.148Z,64.37
2024-01-06T05:33:22.226Z,67.73
2024-01-06T05:35:49.352Z,69.83
2024-01-06T05:38:18.375Z,70.47
2024-01-06T05:40:45.174Z,64.30
2024-01-06T05:43:12.213Z,65.37
2024-01-06T05:45:39.240Z,65.70
2024-01-06T05:48:09.883Z,66.87
2024-01-06T05:50:36.870Z,64.83
2024-01-06T05:53:03.774Z,62.03
2024-01-06T05:55:30.654Z,71.20
2024-01-06T05:57:57.749Z,74.50
2024-01-06T06:00:24.596Z,69.43
2024-01-06T06:02:51.430Z,72.47
2024-01-06T06:05:18.474Z,76.70
2024-01-06T06:07:45.383Z,74.20
2024-01-06T06:10:12.515Z,75.73
2024-01-06T06:12:40.345Z,73.97
2024-01-06T06:15:07.743Z,75.03
2024-01-06T06:17:35.110Z,76.27
2024-01-06T06:20:02.320Z,75.33
2024-01-06T06:22:31.813Z,73.37
2024-01-06T06:24:59.483Z,69.77
2024-01-06T06:27:27.751Z,75.73
2024-01-06T06:29:54.930Z,69.47
2024-01-06T06:32:21.777Z,68.63
2024-01-06T06:34:48.653Z,75.73
2024-01-06T06:37:15.847Z,72.23
2024-01-06T06:39:45.376Z,70.03
2024-01-06T06:42:12.774Z,80.97
2024-01-06T06:44:39.661Z,74.77
2024-01-06T06:47:06.548Z,77.97
2024-01-06T06:49:33.408Z,83.40
2024-01-06T06:52:00.401Z,82.73
2024-01-06T06:54:27.339Z,72.67
2024-01-06T06:56:54.197Z,76.60
2024-01-06T06:59:21.135Z,72.43
2024-01-06T07:01:47.945Z,71.47
2024-01-06T07:04:14.874Z,74.73
2024-01-06T07:06:41.988Z,68.07
2024-01-06T07:09:08.925Z,74.17
2024-01-06T07:11:35.760Z,72.37
2024-01-06T07:14:02.733Z,68.27
2024-01-06T07:16:29.599Z,76.53
2024-01-06T07:18:56.735Z,76.00
2024-01-06T07:21:24.682Z,73.97
2024-01-06T07:23:51.664Z,81.03
2024-01-06T07:26:19.123Z,75.17
2024-01-06T07:28:46.116Z,71.23
2024-01-06T07:31:13.193Z,70.83
2024-01-06T07:33:41.231Z,67.67
2024-01-06T07:36:08.123Z,77.17
2024-01-06T07:38:34.993Z,69.17
2024-01-06T07:41:01.991Z,66.13
2024-01-06T07:43:29.092Z,65.23
2024-01-06T07:45:56.155Z,73.17
2024-01-06T07:48:23.145Z,67.83
2024-01-06T07:50:50.332Z,74.20
2024-01-06T07:53:17.175Z,71.57
2024-01-06T07:55:44.050Z,71.70
2024-01-06T07:58:11.060Z,69.20
2024-01-06T08:00:37.986Z,69.90
2024-01-06T08:03:07.601Z,62.87
2024-01-06T08:05:34.844Z,61.53
2024-01-06T08:08:01.843Z,65.03
2024-01-06T08:10:28.687Z,60.50
2024-01-06T08:12:55.980Z,62.43
2024-01-06T08:15:22.995Z,64.53
2024-01-06T08:17:50.434Z,63.33
2024-01-06T08:20:17.483Z,67.47
2024-01-06T08:22:45.112Z,60.30
2024-01-06T08:25:12.201Z,69.80
2024-01-06T08:27:39.309Z,59.50
2024-01-06T08:30:07.548Z,58.07
2024-01-06T08:32:34.627Z,54.63
2024-01-06T08:35:01.687Z,54.63
2024-01-06T08:37:28.539Z,55.10
2024-01-06T08:39:55.463Z,52.00
2024-01-06T08:42:22.938Z,53.20
2024-01-06T08:44:49.833Z,49.80
2024-01-06T08:47:16.657Z,55.07
2024-01-06T08:49:43.771Z,55.97
2024-01-06T08:52:10.672Z,56.97
2024-01-06T08:54:37.613Z,49.83
2024-01-06T08:57:04.667Z,56.87
2024-01-06T08:59:31.751Z,57.43
2024-01-06T09:01:58.669Z,55.17
2024-01-06T09:04:25.675Z,56.23
2024-01-06T09:06:52.901Z,50.50
2024-01-06T09:09:19.939Z,61.53
2024-01-06T09:11:51.572Z,59.67
2024-01-06T09:14:19.666Z,56.63
2024-01-06T09:16:46.614Z,62.63
2024-01-06T09:19:14.879Z,63.70
2024-01-06T09:21:41.851Z,59.77
2024-01-06T09:24:09.340Z,50.93
2024-01-06T09:26:36.646Z,44.73
2024-01-06T09:29:04.568Z,54.20
2024-01-06T09:31:32.436Z,56.47
2024-01-06T09:34:06.049Z,47.23
2024-01-06T09:36:33.489Z,58.27
2024-01-06T09:39:01.224Z,45.93
2024-01-06T09:41:28.052Z,51.17
2024-01-06T09:43:54.908Z,47.93
2024-01-06T09:46:29.030Z,51.33
2024-01-06T09:48:57.644Z,50.47
2024-01-06T09:51:25.389Z,48.43
2024-01-06T09:53:55.723Z,49.37
2024-01-06T09:56:23.882Z,47.10
2024-01-06T09:58:51.356Z,46.73
2024-01-06T10:01:21.922Z,50.13
2024-01-06T10:03:50.109Z,48.83
2024-01-06T10:06:18.218Z,53.93
2024-01-06T10:08:54.703Z,50.07
2024-01-06T10:11:23.440Z,44.20
2024-01-06T10:13:51.836Z,48.10
2024-01-06T10:16:20.246Z,49.20
2024-01-06T10:18:52.444Z,46.23
2024-01-06T10:21:24.453Z,48.33
2024-01-06T10:23:52.640Z,47.77
2024-01-06T10:26:20.190Z,43.57
2024-01-06T10:28:47.248Z,45.27
2024-01-06T10:31:15.275Z,44.03
2024-01-06T10:33:43.157Z,48.73
2024-01-06T10:36:12.425Z,46.07
2024-01-06T10:38:39.228Z,50.07
2024-01-06T10:41:09.286Z,53.13
2024-01-06T10:43:39.687Z,56.10
2024-01-06T10:46:11.373Z,50.93
2024-01-06T10:48:46.227Z,57.17
2024-01-06T10:51:15.256Z,55.00
2024-01-06T10:53:43.195Z,62.30
2024-01-06T10:56:14.592Z,54.27
2024-01-06T10:58:49.758Z,49.67
2024-01-06T11:01:20.818Z,49.80
2024-01-06T11:03:49.774Z,46.27
2024-01-06T11:06:19.284Z,55.27
2024-01-06T11:09:03.545Z,56.43
2024-01-06T11:11:31.984Z,52.50
2024-01-06T11:14:19.269Z,50.73
2024-01-06T11:16:46.474Z,51.30
2024-01-06T11:19:38.108Z,49.17
2024-01-06T11:22:24.351Z,44.27
2024-01-06T11:24:52.392Z,44.23
2024-01-06T11:27:20.577Z,45.40
2024-01-06T11:29:47.668Z,49.37
2024-01-06T11:32:27.014Z,47.30
2024-01-06T11:34:55.361Z,54.37
2024-01-06T11:37:26.031Z,48.10
2024-01-06T11:39:54.512Z,50.30
2024-01-06T11:42:21.679Z,52.03
2024-01-06T11:44:51.360Z,57.63
2024-01-06T11:47:24.747Z,55.00
2024-01-06T11:49:55.363Z,48.10
2024-01-06T11:52:22.657Z,49.43
2024-01-06T11:54:51.184Z,48.23
2024-01-06T11:57:18.318Z,55.40
2024-01-06T11:59:45.137Z,45.70
2024-01-06T12:02:13.133Z,48.53
2024-01-06T12:04:42.219Z,52.30
2024-01-06T12:07:10.139Z,45.90
2024-01-06T12:09:37.308Z,50.43
2024-01-06T12:12:05.893Z,45.53
2024-01-06T12:14:33.448Z,58.37
2024-01-06T12:17:04.522Z,52.77
2024-01-06T12:19:33.638Z,48.77
2024-01-06T12:22:02.406Z,46.23
2024-01-06T12:24:29.889Z,51.50
2024-01-06T12:26:57.584Z,52.60
2024-01-06T12:29:27.213Z,45.20
2024-01-06T12:31:54.254Z,49.87
2024-01-06T12:34:21.869Z,50.60
2024-01-06T12:36:49.308Z,50.20
2024-01-06T12:39:17.659Z,52.70
2024-01-06T12:41:45.324Z,52.20
2024-01-06T12:44:12.230Z,49.73
2024-01-06T12:46:39.189Z,44.33
2024-01-06T12:49:06.168Z,53.43
2024-01-06T12:51:33.150Z,54.37
2024-01-06T12:54:00.430Z,58.30
2024-01-06T12:56:27.332Z,54.60
2024-01-06T12:58:54.447Z,70.97
2024-01-06T13:01:21.493Z,63.97
2024-01-06T13:03:48.604Z,55.20
2024-01-06T13:06:17.311Z,48.70
2024-01-06T13:08:44.430Z,56.97
2024-01-06T13:11:11.449Z,50.77
2024-01-06T13:13:38.825Z,52.00
2024-01-06T13:16:07.584Z,48.87
2024-01-06T13:18:34.690Z,50.77
2024-01-06T13:21:03.149Z,55.60
2024-01-06T13:23:30.609Z,53.93
2024-01-06T13:25:58.893Z,49.13
2024-01-06T13:28:25.832Z,52.10
2024-01-06T13:30:53.482Z,59.80
2024-01-06T13:33:20.663Z,58.67
2024-01-06T13:35:47.832Z,63.77
2024-01-06T13:38:15.895Z,61.00
2024-01-06T13:40:44.662Z,62.57
2024-01-06T13:43:17.240Z,62.93
2024-01-06T13:45:45.539Z,59.27
2024-01-06T13:48:12.771Z,56.37
2024-01-06T13:50:40.787Z,57.63
2024-01-06T13:53:08.083Z,53.47
2024-01-06T13:55:35.363Z,53.60
2024-01-06T13:58:03.212Z,63.00
2024-01-06T14:00:30.951Z,61.13
2024-01-06T14:02:58.423Z,63.63
2024-01-06T14:05:26.037Z,62.63
2024-01-06T14:07:53.526Z,62.53
2024-01-06T14:10:21.753Z,58.70
2024-01-06T14:12:50.266Z,60.90
2024-01-06T14:15:17.395Z,59.03
2024-01-06T14:17:51.038Z,61.80
2024-01-06T14:20:19.014Z,56.70
2024-01-06T14:22:46.985Z,55.17
2024-01-06T14:25:15.037Z,58.37
2024-01-06T14:27:42.678Z,54.53
2024-01-06T14:30:11.126Z,52.63
2024-01-06T14:32:39.217Z,53.33
2024-01-06T14:35:07.693Z,59.47
2024-01-06T14:37:34.760Z,55.93
2024-01-06T14:40:06.996Z,61.37
2024-01-06T14:42:34.036Z,60.03
2024-01-06T14:45:01.032Z,58.07
2024-01-06T14:47:28.469Z,54.20
2024-01-06T14:49:55.717Z,60.03
2024-01-06T14:52:23.082Z,58.97
2024-01-06T14:54:50.775Z,61.67
2024-01-06T14:57:17.772Z,59.60
2024-01-06T14:59:44.672Z,52.00
2024-01-06T15:02:11.722Z,55.57
2024-01-06T15:04:38.941Z,55.10
2024-01-06T15:07:06.020Z,62.70
2024-01-06T15:09:33.059Z,69.23
2024-01-06T15:12:00.019Z,65.47
2024-01-06T15:14:27.013Z,58.80
2024-01-06T15:16:54.042Z,65.80
2024-01-06T15:19:21.344Z,73.00
2024-01-06T15:21:51.098Z,68.50
2024-01-06T15:24:19.365Z,63.77
2024-01-06T15:26:46.339Z,57.77
2024-01-06T15:29:13.916Z,70.77
2024-01-06T15:31:41.001Z,63.87
2024-01-06T15:34:08.108Z,61.53
2024-01-06T15:36:36.151Z,68.67
2024-01-06T15:39:03.842Z,60.63
2024-01-06T15:41:30.754Z,57.23
2024-01-06T15:43:57.751Z,62.77
2024-01-06T15:46:24.758Z,61.40
2024-01-06T15:48:51.746Z,56.00
2024-01-06T15:51:18.793Z,59.73
2024-01-06T15:53:46.185Z,59.37
2024-01-06T15:56:13.258Z,61.10
2024-01-06T15:58:40.147Z,59.90
2024-01-06T16:01:07.370Z,57.67
2024-01-06T16:03:34.595Z,54.57
2024-01-06T16:06:01.604Z,57.83
2024-01-06T16:08:28.772Z,56.37
2024-01-06T16:10:55.609Z,51.87
2024-01-06T16:13:22.456Z,44.37
2024-01-06T16:15:49.388Z,45.73
2024-01-06T16:18:16.748Z,46.60
2024-01-06T16:20:43.838Z,39.37
2024-01-06T16:23:14.835Z,47.77
2024-01-06T16:25:42.000Z,40.03
2024-01-06T16:28:12.741Z,44.87
2024-01-06T16:30:40.409Z,41.77
2024-01-06T16:33:08.266Z,40.90
2024-01-06T16:35:35.523Z,41.23
2024-01-06T16:38:03.012Z,36.27
2024-01-06T16:40:30.316Z,35.73
2024-01-06T16:42:57.279Z,37.07
2024-01-06T16:45:24.153Z,37.73
2024-01-06T16:47:51.245Z,35.97
2024-01-06T16:50:18.152Z,37.10
2024-01-06T16:52:45.069Z,39.67
2024-01-06T16:55:12.439Z,35.80
2024-01-06T16:57:39.375Z,36.07
2024-01-06T17:00:06.578Z,51.30
2024-01-06T17:02:33.516Z,37.20
2024-01-06T17:05:00.853Z,51.17
2024-01-06T17:07:27.921Z,35.67
2024-01-06T17:09:56.236Z,34.03
2024-01-06T17:12:23.442Z,33.17
2024-01-06T17:14:50.277Z,35.77
2024-01-06T17:17:17.148Z,44.30
2024-01-06T17:19:44.105Z,37.87
2024-01-06T17:22:11.197Z,34.50
2024-01-06T17:24:38.074Z,29.87
2024-01-06T17:27:05.038Z,28.03
2024-01-06T17:29:32.231Z,31.60
2024-01-06T17:31:59.600Z,36.43
2024-01-06T17:34:26.608Z,32.27
2024-01-06T17:36:53.648Z,31.77
2024-01-06T17:39:20.634Z,29.17
2024-01-06T17:41:57.118Z,29.80
2024-01-06T17:44:28.041Z,31.90
2024-01-06T17:46:54.838Z,26.83
2024-01-06T17:49:22.444Z,32.43
2024-01-06T17:51:49.566Z,33.27
2024-01-06T17:54:16.752Z,35.47
2024-01-06T17:56:43.618Z,29.87
2024-01-06T17:59:11.355Z,27.00
2024-01-06T18:01:38.501Z,27.87
2024-01-06T18:04:06.986Z,22.53
2024-01-06T18:06:33.947Z,24.73
2024-01-06T18:09:02.369Z,22.40
2024-01-06T18:11:29.338Z,24.63
2024-01-06T18:13:56.144Z,22.30
2024-01-06T18:16:22.995Z,22.70
2024-01-06T18:18:50.285Z,21.97
2024-01-06T18:21:18.432Z,22.73
2024-01-06T18:23:45.319Z,23.03
2024-01-06T18:26:14.437Z,22.33
2024-01-06T18:28:41.265Z,55.60
2024-01-06T18:31:08.367Z,22.53
2024-01-06T18:33:35.346Z,34.80
2024-01-06T18:36:02.345Z,21.40
2024-01-06T18:38:29.209Z,21.43
2024-01-06T18:40:59.784Z,18.87
2024-01-06T18:43:27.359Z,19.73
2024-01-06T18:45:54.882Z,21.33
2024-01-06T18:48:22.477Z,19.93
2024-01-06T18:50:49.551Z,18.13
2024-01-06T18:53:16.765Z,21.20
2024-01-06T18:55:43.619Z,20.73
2024-01-06T18:58:10.776Z,20.47
2024-01-06T19:00:37.837Z,20.97
2024-01-06T19:03:05.002Z,19.50
2024-01-06T19:05:34.634Z,20.37
2024-01-06T19:08:01.674Z,22.70
2024-01-06T19:10:29.167Z,20.83
2024-01-06T19:12:56.099Z,22.30
2024-01-06T19:15:22.923Z,22.43
2024-01-06T19:17:50.393Z,21.10
2024-01-06T19:20:17.674Z,23.60
2024-01-06T19:22:57.417Z,23.20
2024-01-06T19:25:29.735Z,20.77
2024-01-06T19:27:56.835Z,23.33
2024-01-06T19:30:23.962Z,21.93
2024-01-06T19:32:50.867Z,24.63
2024-01-06T19:35:17.930Z,24.50
2024-01-06T19:37:44.692Z,25.13
2024-01-06T19:40:11.905Z,22.97
2024-01-06T19:42:39.038Z,25.90
2024-01-06T19:45:06.205Z,25.03
2024-01-06T19:47:33.775Z,23.87
2024-01-06T19:50:00.720Z,23.63
2024-01-06T19:52:27.590Z,21.00
2024-01-06T19:54:54.637Z,20.27
2024-01-06T19:57:21.950Z,25.40
2024-01-06T19:59:51.006Z,23.83
2024-01-06T20:02:17.923Z,27.47
2024-01-06T20:04:44.962Z,24.90
2024-01-06T20:07:12.108Z,23.43
2024-01-06T20:09:39.428Z,22.43
2024-01-06T20:12:06.501Z,27.20
2024-01-06T20:14:33.482Z,26.57
2024-01-06T20:17:00.324Z,25.60
2024-01-06T20:19:27.729Z,24.87
2024-01-06T20:21:54.677Z,26.83
2024-01-06T20:24:21.742Z,25.47
2024-01-06T20:26:48.664Z,26.30
2024-01-06T20:29:15.585Z,21.53
2024-01-06T20:31:42.499Z,26.33
2024-01-06T20:34:09.844Z,25.90
2024-01-06T20:36:36.822Z,22.70
2024-01-06T20:39:03.812Z,20.50
2024-01-06T20:41:30.694Z,24.80
2024-01-06T20:43:57.664Z,23.40
2024-01-06T20:46:25.449Z,23.90
2024-01-06T20:48:52.427Z,22.73
2024-01-06T20:51:19.738Z,25.67
2024-01-06T20:53:46.688Z,23.13
2024-01-06T20:56:14.697Z,21.73
2024-01-06T20:58:41.852Z,23.23
2024-01-06T21:01:09.043Z,22.20
2024-01-06T21:03:36.433Z,24.23
2024-01-06T21:06:03.381Z,20.67
2024-01-06T21:08:30.384Z,23.23
2024-01-06T21:10:57.172Z,28.40
2024-01-06T21:13:24.138Z,20.10
2024-01-06T21:15:51.030Z,20.90
2024-01-06T21:18:18.139Z,23.53
2024-01-06T21:20:45.444Z,22.93
2024-01-06T21:23:12.403Z,21.47
2024-01-06T21:25:39.274Z,24.00
2024-01-06T21:28:07.133Z,21.63
2024-01-06T21:30:36.232Z,20.63
2024-01-06T21:33:03.572Z,24.57
2024-01-06T21:35:31.361Z,21.40
2024-01-06T21:37:58.745Z,22.93
2024-01-06T21:40:28.759Z,20.37
2024-01-06T21:42:55.979Z,20.57
2024-01-06T21:45:22.870Z,22.83
2024-01-06T21:47:52.872Z,21.03
2024-01-06T21:50:19.968Z,20.63
2024-01-06T21:52:46.957Z,20.93
2024-01-06T21:55:13.825Z,18.10
2024-01-06T21:57:40.993Z,21.43
2024-01-06T22:00:13.208Z,17.40
2024-01-06T22:02:40.325Z,18.30
2024-01-06T22:05:07.247Z,14.77
2024-01-06T22:07:34.241Z,15.17
2024-01-06T22:10:01.278Z,19.87
2024-01-06T22:12:28.228Z,16.00
2024-01-06T22:14:55.066Z,17.37
2024-01-06T22:17:22.664Z,17.37
2024-01-06T22:19:49.533Z,16.10
2024-01-06T22:22:16.535Z,15.47
2024-01-06T22:24:43.629Z,19.80
2024-01-06T22:27:11.876Z,19.13
2024-01-06T22:29:40.920Z,15.47
2024-01-06T22:32:09.378Z,16.37
2024-01-06T22:34:36.432Z,16.47
2024-01-06T22:37:03.534Z,17.67
2024-01-06T22:39:30.474Z,15.00
2024-01-06T22:41:57.402Z,15.97
2024-01-06T22:44:24.636Z,19.47
2024-01-06T22:46:51.451Z,15.90
2024-01-06T22:49:19.468Z,14.20
2024-01-06T22:51:46.542Z,12.97
2024-01-06T22:54:13.430Z,12.90
2024-01-06T22:56:40.453Z,14.97
2024-01-06T22:59:07.307Z,16.97
2024-01-06T23:01:34.213Z,15.30
2024-01-06T23:04:01.353Z,14.77
2024-01-06T23:06:29.788Z,13.77
2024-01-06T23:08:57.135Z,12.50
2024-01-06T23:11:24.012Z,11.83
2024-01-06T23:13:51.356Z,12.67
2024-01-06T23:16:18.526Z,12.57
2024-01-06T23:18:45.485Z,14.57
2024-01-06T23:21:12.489Z,13.83
2024-01-06T23:23:40.316Z,10.60
2024-01-06T23:26:07.680Z,14.13
2024-01-06T23:28:34.560Z,13.77
2024-01-06T23:31:01.965Z,14.00
2024-01-06T23:33:29.514Z,13.50
2024-01-06T23:35:57.899Z,11.50
2024-01-06T23:38:24.788Z,11.03
2024-01-06T23:40:51.788Z,11.37
2024-01-06T23:43:18.672Z,10.97
2024-01-06T23:45:45.628Z,10.50
2024-01-06T23:48:12.545Z,12.33
2024-01-06T23:50:39.381Z,10.10
2024-01-06T23:53:06.251Z,12.60
2024-01-06T23:55:33.232Z,9.67
2024-01-06T23:58:00.128Z,14.00
